sensor_id;sensor_type;location;lat;lon;timestamp;pressure;altitude;pressure_sealevel;temperature
20867;BMP280;10593;48.398;10.698;2023-02-15T00:01:43;97557.50;;;8.75
20867;BMP280;10593;48.398;10.698;2023-02-15T00:04:12;97554.06;;;8.74
20867;BMP280;10593;48.398;10.698;2023-02-15T00:06:39;97554.03;;;8.73
20867;BMP280;10593;48.398;10.698;2023-02-15T00:09:04;97547.19;;;8.72
20867;BMP280;10593;48.398;10.698;2023-02-15T00:11:31;97542.06;;;8.72
20867;BMP280;10593;48.398;10.698;2023-02-15T00:14:09;97543.78;;;8.71
20867;BMP280;10593;48.398;10.698;2023-02-15T00:16:36;97543.78;;;8.71
20867;BMP280;10593;48.398;10.698;2023-02-15T00:19:02;97539.50;;;8.70
20867;BMP280;10593;48.398;10.698;2023-02-15T00:21:31;97546.31;;;8.70
20867;BMP280;10593;48.398;10.698;2023-02-15T00:23:59;97544.63;;;8.69
20867;BMP280;10593;48.398;10.698;2023-02-15T00:26:26;97537.78;;;8.68
20867;BMP280;10593;48.398;10.698;2023-02-15T00:28:52;97538.63;;;8.67
20867;BMP280;10593;48.398;10.698;2023-02-15T00:31:18;97534.31;;;8.64
20867;BMP280;10593;48.398;10.698;2023-02-15T00:33:44;97532.59;;;8.62
20867;BMP280;10593;48.398;10.698;2023-02-15T00:36:12;97535.13;;;8.60
20867;BMP280;10593;48.398;10.698;2023-02-15T00:38:38;97539.38;;;8.58
20867;BMP280;10593;48.398;10.698;2023-02-15T00:41:06;97539.38;;;8.58
20867;BMP280;10593;48.398;10.698;2023-02-15T00:43:34;97544.50;;;8.58
20867;BMP280;10593;48.398;10.698;2023-02-15T00:46:01;97539.38;;;8.58
20867;BMP280;10593;48.398;10.698;2023-02-15T00:48:27;97537.66;;;8.57
20867;BMP280;10593;48.398;10.698;2023-02-15T00:50:57;97541.91;;;8.57
20867;BMP280;10593;48.398;10.698;2023-02-15T00:53:25;97531.66;;;8.54
20867;BMP280;10593;48.398;10.698;2023-02-15T00:55:51;97532.53;;;8.54
20867;BMP280;10593;48.398;10.698;2023-02-15T00:58:17;97532.53;;;8.54
20867;BMP280;10593;48.398;10.698;2023-02-15T01:00:45;97528.25;;;8.55
20867;BMP280;10593;48.398;10.698;2023-02-15T01:03:14;97526.53;;;8.54
20867;BMP280;10593;48.398;10.698;2023-02-15T01:05:40;97519.69;;;8.53
20867;BMP280;10593;48.398;10.698;2023-02-15T01:08:06;97525.66;;;8.53
20867;BMP280;10593;48.398;10.698;2023-02-15T01:10:34;97520.53;;;8.53
20867;BMP280;10593;48.398;10.698;2023-02-15T01:13:00;97514.56;;;8.53
20867;BMP280;10593;48.398;10.698;2023-02-15T01:15:26;97517.97;;;8.52
20867;BMP280;10593;48.398;10.698;2023-02-15T01:17:52;97513.69;;;8.52
20867;BMP280;10593;48.398;10.698;2023-02-15T01:20:27;97517.13;;;8.53
20867;BMP280;10593;48.398;10.698;2023-02-15T01:22:54;97507.72;;;8.52
20867;BMP280;10593;48.398;10.698;2023-02-15T01:25:22;97506.84;;;8.51
20867;BMP280;10593;48.398;10.698;2023-02-15T01:27:49;97506.00;;;8.51
20867;BMP280;10593;48.398;10.698;2023-02-15T01:30:16;97513.69;;;8.51
20867;BMP280;10593;48.398;10.698;2023-02-15T01:32:43;97507.69;;;8.49
20867;BMP280;10593;48.398;10.698;2023-02-15T01:35:10;97509.41;;;8.50
20867;BMP280;10593;48.398;10.698;2023-02-15T01:37:37;97511.97;;;8.50
20867;BMP280;10593;48.398;10.698;2023-02-15T01:40:10;97503.41;;;8.49
20867;BMP280;10593;48.398;10.698;2023-02-15T01:42:37;97499.16;;;8.47
20867;BMP280;10593;48.398;10.698;2023-02-15T01:45:17;97498.31;;;8.48
20867;BMP280;10593;48.398;10.698;2023-02-15T01:47:53;97500.84;;;8.46
20867;BMP280;10593;48.398;10.698;2023-02-15T01:50:50;97493.13;;;8.45
20867;BMP280;10593;48.398;10.698;2023-02-15T01:53:30;97499.09;;;8.44
20867;BMP280;10593;48.398;10.698;2023-02-15T01:56:13;97487.97;;;8.42
20867;BMP280;10593;48.398;10.698;2023-02-15T01:58:40;97489.66;;;8.40
20867;BMP280;10593;48.398;10.698;2023-02-15T02:01:08;97491.34;;;8.39
20867;BMP280;10593;48.398;10.698;2023-02-15T02:03:59;97498.19;;;8.39
20867;BMP280;10593;48.398;10.698;2023-02-15T02:06:27;97493.03;;;8.37
20867;BMP280;10593;48.398;10.698;2023-02-15T02:08:54;97496.47;;;8.38
20867;BMP280;10593;48.398;10.698;2023-02-15T02:11:20;97495.59;;;8.37
20867;BMP280;10593;48.398;10.698;2023-02-15T02:13:47;97492.19;;;8.38
20867;BMP280;10593;48.398;10.698;2023-02-15T02:27:41;97490.41;;;8.30
20867;BMP280;10593;48.398;10.698;2023-02-15T02:30:44;97488.69;;;8.27
20867;BMP280;10593;48.398;10.698;2023-02-15T02:33:50;97486.97;;;8.28
20867;BMP280;10593;48.398;10.698;2023-02-15T02:37:24;97490.34;;;8.24
20867;BMP280;10593;48.398;10.698;2023-02-15T02:40:00;97492.91;;;8.24
20867;BMP280;10593;48.398;10.698;2023-02-15T02:42:43;97485.22;;;8.24
20867;BMP280;10593;48.398;10.698;2023-02-15T02:48:29;97475.81;;;8.22
20867;BMP280;10593;48.398;10.698;2023-02-15T02:50:55;97479.22;;;8.22
20867;BMP280;10593;48.398;10.698;2023-02-15T02:53:21;97474.13;;;8.22
20867;BMP280;10593;48.398;10.698;2023-02-15T02:55:59;97473.28;;;8.23
20867;BMP280;10593;48.398;10.698;2023-02-15T02:58:44;97469.84;;;8.23
20867;BMP280;10593;48.398;10.698;2023-02-15T03:01:22;97463.88;;;8.23
20867;BMP280;10593;48.398;10.698;2023-02-15T03:04:00;97465.56;;;8.22
20867;BMP280;10593;48.398;10.698;2023-02-15T03:06:42;97465.56;;;8.22
20867;BMP280;10593;48.398;10.698;2023-02-15T03:09:17;97462.16;;;8.21
20867;BMP280;10593;48.398;10.698;2023-02-15T03:11:45;97464.72;;;8.21
20867;BMP280;10593;48.398;10.698;2023-02-15T03:14:15;97459.59;;;8.21
20867;BMP280;10593;48.398;10.698;2023-02-15T03:16:44;97461.28;;;8.21
20867;BMP280;10593;48.398;10.698;2023-02-15T03:19:23;97463.00;;;8.20
20867;BMP280;10593;48.398;10.698;2023-02-15T03:22:17;97456.13;;;8.19
20867;BMP280;10593;48.398;10.698;2023-02-15T03:25:02;97454.41;;;8.18
20867;BMP280;10593;48.398;10.698;2023-02-15T03:27:44;97459.53;;;8.18
20867;BMP280;10593;48.398;10.698;2023-02-15T03:30:13;97464.66;;;8.18
20867;BMP280;10593;48.398;10.698;2023-02-15T03:32:41;97461.22;;;8.18
20867;BMP280;10593;48.398;10.698;2023-02-15T03:35:09;97455.22;;;8.17
20867;BMP280;10593;48.398;10.698;2023-02-15T03:37:47;97468.03;;;8.17
20867;BMP280;10593;48.398;10.698;2023-02-15T03:40:30;97466.31;;;8.16
20867;BMP280;10593;48.398;10.698;2023-02-15T03:43:57;97466.28;;;8.13
20867;BMP280;10593;48.398;10.698;2023-02-15T03:46:43;97462.84;;;8.11
20867;BMP280;10593;48.398;10.698;2023-02-15T03:49:21;97469.69;;;8.12
20867;BMP280;10593;48.398;10.698;2023-02-15T03:51:50;97476.50;;;8.12
20867;BMP280;10593;48.398;10.698;2023-02-15T03:54:25;97472.25;;;8.12
20867;BMP280;10593;48.398;10.698;2023-02-15T03:57:16;97466.25;;;8.10
20867;BMP280;10593;48.398;10.698;2023-02-15T04:00:12;97465.38;;;8.08
20867;BMP280;10593;48.398;10.698;2023-02-15T04:03:27;97469.59;;;8.06
20867;BMP280;10593;48.398;10.698;2023-02-15T04:05:54;97471.34;;;8.07
20867;BMP280;10593;48.398;10.698;2023-02-15T04:08:20;97466.22;;;8.09
20867;BMP280;10593;48.398;10.698;2023-02-15T04:11:06;97461.13;;;8.07
20867;BMP280;10593;48.398;10.698;2023-02-15T04:13:32;97462.78;;;8.07
20867;BMP280;10593;48.398;10.698;2023-02-15T04:15:58;97461.97;;;8.08
20867;BMP280;10593;48.398;10.698;2023-02-15T04:18:39;97460.28;;;8.08
20867;BMP280;10593;48.398;10.698;2023-02-15T04:21:26;97455.09;;;8.05
20867;BMP280;10593;48.398;10.698;2023-02-15T04:24:11;97455.94;;;8.04
20867;BMP280;10593;48.398;10.698;2023-02-15T04:26:57;97454.22;;;8.03
20867;BMP280;10593;48.398;10.698;2023-02-15T04:29:24;97453.38;;;8.03
20867;BMP280;10593;48.398;10.698;2023-02-15T04:31:52;97458.50;;;8.04
20867;BMP280;10593;48.398;10.698;2023-02-15T04:34:18;97467.03;;;8.03
20867;BMP280;10593;48.398;10.698;2023-02-15T04:36:44;97457.63;;;8.02
20867;BMP280;10593;48.398;10.698;2023-02-15T04:39:13;97459.38;;;8.05
20867;BMP280;10593;48.398;10.698;2023-02-15T04:41:40;97462.78;;;8.04
20867;BMP280;10593;48.398;10.698;2023-02-15T04:44:05;97454.22;;;8.03
20867;BMP280;10593;48.398;10.698;2023-02-15T04:46:31;97463.63;;;8.04
20867;BMP280;10593;48.398;10.698;2023-02-15T04:48:57;97462.78;;;8.04
20867;BMP280;10593;48.398;10.698;2023-02-15T04:51:23;97462.78;;;8.04
20867;BMP280;10593;48.398;10.698;2023-02-15T04:53:49;97449.09;;;8.03
20867;BMP280;10593;48.398;10.698;2023-02-15T04:56:18;97459.34;;;8.03
20867;BMP280;10593;48.398;10.698;2023-02-15T04:58:44;97459.34;;;8.03
20867;BMP280;10593;48.398;10.698;2023-02-15T05:01:10;97454.19;;;8.00
20867;BMP280;10593;48.398;10.698;2023-02-15T05:03:36;97456.75;;;8.00
20867;BMP280;10593;48.398;10.698;2023-02-15T05:06:03;97455.03;;;7.99
20867;BMP280;10593;48.398;10.698;2023-02-15T05:08:29;97450.75;;;7.98
20867;BMP280;10593;48.398;10.698;2023-02-15T05:10:55;97452.44;;;7.96
20867;BMP280;10593;48.398;10.698;2023-02-15T05:13:20;97454.13;;;7.96
20867;BMP280;10593;48.398;10.698;2023-02-15T05:15:48;97444.78;;;7.96
20867;BMP280;10593;48.398;10.698;2023-02-15T05:18:16;97453.28;;;7.95
20867;BMP280;10593;48.398;10.698;2023-02-15T05:20:42;97443.06;;;7.95
20867;BMP280;10593;48.398;10.698;2023-02-15T05:23:08;97445.63;;;7.95
20867;BMP280;10593;48.398;10.698;2023-02-15T05:25:33;97443.03;;;7.94
20867;BMP280;10593;48.398;10.698;2023-02-15T05:28:36;97444.72;;;7.92
20867;BMP280;10593;48.398;10.698;2023-02-15T05:31:15;97446.41;;;7.91
20867;BMP280;10593;48.398;10.698;2023-02-15T05:33:42;97452.34;;;7.90
20867;BMP280;10593;48.398;10.698;2023-02-15T05:36:09;97451.53;;;7.90
20867;BMP280;10593;48.398;10.698;2023-02-15T05:38:35;97451.53;;;7.90
20867;BMP280;10593;48.398;10.698;2023-02-15T05:41:05;97460.03;;;7.90
20867;BMP280;10593;48.398;10.698;2023-02-15T05:43:32;97450.66;;;7.89
20867;BMP280;10593;48.398;10.698;2023-02-15T05:45:59;97450.66;;;7.89
20867;BMP280;10593;48.398;10.698;2023-02-15T05:48:26;97458.31;;;7.88
20867;BMP280;10593;48.398;10.698;2023-02-15T05:51:10;97460.03;;;7.89
20867;BMP280;10593;48.398;10.698;2023-02-15T05:53:39;97461.72;;;7.88
20867;BMP280;10593;48.398;10.698;2023-02-15T05:56:08;97464.28;;;7.87
20867;BMP280;10593;48.398;10.698;2023-02-15T05:58:37;97464.28;;;7.87
20867;BMP280;10593;48.398;10.698;2023-02-15T06:01:13;97462.56;;;7.87
20867;BMP280;10593;48.398;10.698;2023-02-15T06:03:39;97473.59;;;7.85
20867;BMP280;10593;48.398;10.698;2023-02-15T06:06:06;97463.38;;;7.85
20867;BMP280;10593;48.398;10.698;2023-02-15T06:08:33;97462.53;;;7.84
20867;BMP280;10593;48.398;10.698;2023-02-15T06:11:00;97461.66;;;7.84
20867;BMP280;10593;48.398;10.698;2023-02-15T06:13:25;97473.63;;;7.83
20867;BMP280;10593;48.398;10.698;2023-02-15T06:15:51;97470.22;;;7.84
20867;BMP280;10593;48.398;10.698;2023-02-15T06:18:16;97471.06;;;7.83
20867;BMP280;10593;48.398;10.698;2023-02-15T06:20:45;97481.28;;;7.83
20867;BMP280;10593;48.398;10.698;2023-02-15T06:23:11;97487.25;;;7.82
20867;BMP280;10593;48.398;10.698;2023-02-15T06:25:36;97474.47;;;7.82
20867;BMP280;10593;48.398;10.698;2023-02-15T06:28:02;97477.84;;;7.81
20867;BMP280;10593;48.398;10.698;2023-02-15T06:30:27;97483.81;;;7.82
20867;BMP280;10593;48.398;10.698;2023-02-15T06:32:53;97484.69;;;7.82
20867;BMP280;10593;48.398;10.698;2023-02-15T06:35:19;97477.00;;;7.82
20867;BMP280;10593;48.398;10.698;2023-02-15T06:37:48;97479.56;;;7.82
20867;BMP280;10593;48.398;10.698;2023-02-15T06:40:14;97485.53;;;7.81
20867;BMP280;10593;48.398;10.698;2023-02-15T06:42:42;97479.53;;;7.81
20867;BMP280;10593;48.398;10.698;2023-02-15T06:45:08;97476.97;;;7.81
20867;BMP280;10593;48.398;10.698;2023-02-15T06:47:34;97485.50;;;7.80
20867;BMP280;10593;48.398;10.698;2023-02-15T06:49:59;97476.09;;;7.79
20867;BMP280;10593;48.398;10.698;2023-02-15T06:52:25;97482.91;;;7.78
20867;BMP280;10593;48.398;10.698;2023-02-15T06:54:51;97484.63;;;7.78
20867;BMP280;10593;48.398;10.698;2023-02-15T06:57:17;97490.59;;;7.78
20867;BMP280;10593;48.398;10.698;2023-02-15T06:59:42;97489.75;;;7.78
20867;BMP280;10593;48.398;10.698;2023-02-15T07:02:12;97488.88;;;7.77
20867;BMP280;10593;48.398;10.698;2023-02-15T07:04:37;97488.03;;;7.78
20867;BMP280;10593;48.398;10.698;2023-02-15T07:07:03;97489.72;;;7.76
20867;BMP280;10593;48.398;10.698;2023-02-15T07:09:29;97489.72;;;7.76
20867;BMP280;10593;48.398;10.698;2023-02-15T07:11:55;97488.03;;;7.77
20867;BMP280;10593;48.398;10.698;2023-02-15T07:14:39;97488.00;;;7.75
20867;BMP280;10593;48.398;10.698;2023-02-15T07:17:06;97495.69;;;7.77
20867;BMP280;10593;48.398;10.698;2023-02-15T07:19:31;97499.94;;;7.76
20867;BMP280;10593;48.398;10.698;2023-02-15T07:21:57;97492.28;;;7.76
20867;BMP280;10593;48.398;10.698;2023-02-15T07:24:23;97492.28;;;7.76
20867;BMP280;10593;48.398;10.698;2023-02-15T07:26:48;97493.97;;;7.77
20867;BMP280;10593;48.398;10.698;2023-02-15T07:29:14;97488.00;;;7.75
20867;BMP280;10593;48.398;10.698;2023-02-15T07:31:41;97489.72;;;7.76
20867;BMP280;10593;48.398;10.698;2023-02-15T07:34:10;97484.59;;;7.76
20867;BMP280;10593;48.398;10.698;2023-02-15T07:36:36;97478.63;;;7.76
20867;BMP280;10593;48.398;10.698;2023-02-15T07:39:02;97473.53;;;7.76
20867;BMP280;10593;48.398;10.698;2023-02-15T07:41:28;97473.53;;;7.76
20867;BMP280;10593;48.398;10.698;2023-02-15T07:43:53;97477.75;;;7.75
20867;BMP280;10593;48.398;10.698;2023-02-15T07:46:19;97474.31;;;7.73
20867;BMP280;10593;48.398;10.698;2023-02-15T07:48:46;97476.00;;;7.71
20867;BMP280;10593;48.398;10.698;2023-02-15T07:51:13;97476.00;;;7.71
20867;BMP280;10593;48.398;10.698;2023-02-15T07:53:40;97477.69;;;7.71
20867;BMP280;10593;48.398;10.698;2023-02-15T07:56:12;97465.78;;;7.71
20867;BMP280;10593;48.398;10.698;2023-02-15T07:58:38;97470.91;;;7.71
20867;BMP280;10593;48.398;10.698;2023-02-15T08:03:43;97473.47;;;7.71
20867;BMP280;10593;48.398;10.698;2023-02-15T08:06:09;97475.16;;;7.72
20867;BMP280;10593;48.398;10.698;2023-02-15T08:08:37;97470.94;;;7.74
20867;BMP280;10593;48.398;10.698;2023-02-15T08:14:15;97470.94;;;7.74
20867;BMP280;10593;48.398;10.698;2023-02-15T08:16:51;97480.31;;;7.75
20867;BMP280;10593;48.398;10.698;2023-02-15T08:19:25;97476.03;;;7.74
20867;BMP280;10593;48.398;10.698;2023-02-15T08:21:58;97468.41;;;7.76
20867;BMP280;10593;48.398;10.698;2023-02-15T08:24:27;97470.97;;;7.76
20867;BMP280;10593;48.398;10.698;2023-02-15T08:26:53;97470.97;;;7.77
20867;BMP280;10593;48.398;10.698;2023-02-15T08:29:23;97469.28;;;7.78
20867;BMP280;10593;48.398;10.698;2023-02-15T08:31:54;97470.16;;;7.80
20867;BMP280;10593;48.398;10.698;2023-02-15T08:34:20;97471.03;;;7.80
20867;BMP280;10593;48.398;10.698;2023-02-15T08:36:46;97463.34;;;7.82
20867;BMP280;10593;48.398;10.698;2023-02-15T08:39:13;97459.09;;;7.82
20867;BMP280;10593;48.398;10.698;2023-02-15T08:41:43;97459.94;;;7.83
20867;BMP280;10593;48.398;10.698;2023-02-15T08:44:09;97463.38;;;7.83
20867;BMP280;10593;48.398;10.698;2023-02-15T08:46:39;97463.38;;;7.85
20867;BMP280;10593;48.398;10.698;2023-02-15T08:49:05;97454.81;;;7.83
20867;BMP280;10593;48.398;10.698;2023-02-15T08:51:35;97463.38;;;7.83
20867;BMP280;10593;48.398;10.698;2023-02-15T08:54:06;97464.22;;;7.84
20867;BMP280;10593;48.398;10.698;2023-02-15T08:56:39;97463.38;;;7.83
20867;BMP280;10593;48.398;10.698;2023-02-15T08:59:07;97464.22;;;7.82
20867;BMP280;10593;48.398;10.698;2023-02-15T09:01:34;97461.66;;;7.82
20867;BMP280;10593;48.398;10.698;2023-02-15T09:04:05;97466.78;;;7.84
20867;BMP280;10593;48.398;10.698;2023-02-15T09:06:39;97465.09;;;7.84
20867;BMP280;10593;48.398;10.698;2023-02-15T09:09:06;97463.38;;;7.85
20867;BMP280;10593;48.398;10.698;2023-02-15T09:11:37;97465.09;;;7.86
20867;BMP280;10593;48.398;10.698;2023-02-15T09:14:07;97462.56;;;7.87
20867;BMP280;10593;48.398;10.698;2023-02-15T09:16:37;97465.16;;;7.89
20867;BMP280;10593;48.398;10.698;2023-02-15T09:19:04;97460.88;;;7.89
20867;BMP280;10593;48.398;10.698;2023-02-15T09:21:31;97465.16;;;7.90
20867;BMP280;10593;48.398;10.698;2023-02-15T09:24:01;97458.34;;;7.91
20867;BMP280;10593;48.398;10.698;2023-02-15T09:26:31;97470.34;;;7.93
20867;BMP280;10593;48.398;10.698;2023-02-15T09:29:00;97454.97;;;7.93
20867;BMP280;10593;48.398;10.698;2023-02-15T09:31:30;97454.97;;;7.93
20867;BMP280;10593;48.398;10.698;2023-02-15T09:33:58;97456.69;;;7.94
20867;BMP280;10593;48.398;10.698;2023-02-15T09:36:43;97466.09;;;7.95
20867;BMP280;10593;48.398;10.698;2023-02-15T09:39:10;97458.41;;;7.95
20867;BMP280;10593;48.398;10.698;2023-02-15T10:08:15;97471.09;;;7.86
20867;BMP280;10593;48.398;10.698;2023-02-15T10:10:53;97466.88;;;7.90
20867;BMP280;10593;48.398;10.698;2023-02-15T10:13:52;97471.16;;;7.92
20867;BMP280;10593;48.398;10.698;2023-02-15T10:16:48;97468.63;;;7.94
20867;BMP280;10593;48.398;10.698;2023-02-15T10:29:05;97439.63;;;7.95
20867;BMP280;10593;48.398;10.698;2023-02-15T10:31:54;97436.25;;;7.97
20867;BMP280;10593;48.398;10.698;2023-02-15T10:43:54;97428.69;;;8.08
20867;BMP280;10593;48.398;10.698;2023-02-15T10:49:53;97425.31;;;8.12
20867;BMP280;10593;48.398;10.698;2023-02-15T10:52:47;97424.47;;;8.11
20867;BMP280;10593;48.398;10.698;2023-02-15T10:55:49;97420.19;;;8.12
20867;BMP280;10593;48.398;10.698;2023-02-15T11:01:13;97408.34;;;8.18
20867;BMP280;10593;48.398;10.698;2023-02-15T11:06:50;97407.53;;;8.23
20867;BMP280;10593;48.398;10.698;2023-02-15T11:09:22;97401.59;;;8.23
20867;BMP280;10593;48.398;10.698;2023-02-15T11:11:53;97402.44;;;8.26
20867;BMP280;10593;48.398;10.698;2023-02-15T11:17:14;97392.28;;;8.32
20867;BMP280;10593;48.398;10.698;2023-02-15T11:22:33;97380.38;;;8.37
20867;BMP280;10593;48.398;10.698;2023-02-15T11:25:00;97382.97;;;8.42
20867;BMP280;10593;48.398;10.698;2023-02-15T11:27:32;97370.19;;;8.43
20867;BMP280;10593;48.398;10.698;2023-02-15T11:30:15;97363.38;;;8.45
20867;BMP280;10593;48.398;10.698;2023-02-15T11:32:56;97367.66;;;8.48
20867;BMP280;10593;48.398;10.698;2023-02-15T11:35:31;97365.97;;;8.50
20867;BMP280;10593;48.398;10.698;2023-02-15T11:38:13;97360.00;;;8.51
20867;BMP280;10593;48.398;10.698;2023-02-15T11:41:01;97356.63;;;8.55
20867;BMP280;10593;48.398;10.698;2023-02-15T11:43:58;97352.34;;;8.57
20867;BMP280;10593;48.398;10.698;2023-02-15T11:46:26;97346.38;;;8.58
20867;BMP280;10593;48.398;10.698;2023-02-15T11:48:52;97345.59;;;8.62
20867;BMP280;10593;48.398;10.698;2023-02-15T11:51:21;97339.63;;;8.66
20867;BMP280;10593;48.398;10.698;2023-02-15T11:53:49;97340.50;;;8.69
20867;BMP280;10593;48.398;10.698;2023-02-15T11:56:18;97337.97;;;8.72
20867;BMP280;10593;48.398;10.698;2023-02-15T11:59:12;97324.31;;;8.76
20867;BMP280;10593;48.398;10.698;2023-02-15T12:01:44;97316.66;;;8.78
20867;BMP280;10593;48.398;10.698;2023-02-15T12:04:18;97314.97;;;8.81
20867;BMP280;10593;48.398;10.698;2023-02-15T12:06:54;97307.28;;;8.86
20867;BMP280;10593;48.398;10.698;2023-02-15T12:09:44;97293.66;;;8.90
20867;BMP280;10593;48.398;10.698;2023-02-15T12:12:34;97298.81;;;8.94
20867;BMP280;10593;48.398;10.698;2023-02-15T12:15:07;97308.19;;;8.97
20867;BMP280;10593;48.398;10.698;2023-02-15T12:20:21;97293.72;;;9.03
20867;BMP280;10593;48.398;10.698;2023-02-15T12:22:54;97290.31;;;9.06
20867;BMP280;10593;48.398;10.698;2023-02-15T12:25:50;97296.31;;;9.09
20867;BMP280;10593;48.398;10.698;2023-02-15T12:28:31;97290.34;;;9.12
20867;BMP280;10593;48.398;10.698;2023-02-15T12:30:59;97292.06;;;9.14
20867;BMP280;10593;48.398;10.698;2023-02-15T12:33:36;97283.53;;;9.18
20867;BMP280;10593;48.398;10.698;2023-02-15T12:36:32;97280.09;;;9.19
20867;BMP280;10593;48.398;10.698;2023-02-15T12:42:24;97269.88;;;9.24
20867;BMP280;10593;48.398;10.698;2023-02-15T12:45:01;97271.63;;;9.28
20867;BMP280;10593;48.398;10.698;2023-02-15T12:47:28;97268.19;;;9.30
20867;BMP280;10593;48.398;10.698;2023-02-15T12:50:14;97262.22;;;9.33
20867;BMP280;10593;48.398;10.698;2023-02-15T12:52:45;97266.53;;;9.35
20867;BMP280;10593;48.398;10.698;2023-02-15T12:55:25;97257.09;;;9.39
20867;BMP280;10593;48.398;10.698;2023-02-15T12:58:21;97252.84;;;9.42
20867;BMP280;10593;48.398;10.698;2023-02-15T13:01:24;97252.84;;;9.45
20867;BMP280;10593;48.398;10.698;2023-02-15T13:06:25;97247.75;;;9.51
20867;BMP280;10593;48.398;10.698;2023-02-15T13:08:55;97241.75;;;9.55
20867;BMP280;10593;48.398;10.698;2023-02-15T13:11:30;97246.91;;;9.60
20867;BMP280;10593;48.398;10.698;2023-02-15T13:14:03;97240.06;;;9.63
20867;BMP280;10593;48.398;10.698;2023-02-15T13:16:38;97240.91;;;9.67
20867;BMP280;10593;48.398;10.698;2023-02-15T13:19:16;97234.97;;;9.71
20867;BMP280;10593;48.398;10.698;2023-02-15T13:21:47;97240.09;;;9.74
20867;BMP280;10593;48.398;10.698;2023-02-15T13:24:33;97237.53;;;9.78
20867;BMP280;10593;48.398;10.698;2023-02-15T13:27:01;97233.25;;;9.80
20867;BMP280;10593;48.398;10.698;2023-02-15T13:29:36;97228.97;;;9.84
20867;BMP280;10593;48.398;10.698;2023-02-15T13:32:24;97234.13;;;9.88
20867;BMP280;10593;48.398;10.698;2023-02-15T13:34:58;97219.56;;;9.92
20867;BMP280;10593;48.398;10.698;2023-02-15T13:40:51;97213.59;;;9.99
20867;BMP280;10593;48.398;10.698;2023-02-15T13:43:39;97213.63;;;10.03
20867;BMP280;10593;48.398;10.698;2023-02-15T13:46:43;97211.91;;;10.05
20867;BMP280;10593;48.398;10.698;2023-02-15T13:52:19;97204.19;;;10.11
20867;BMP280;10593;48.398;10.698;2023-02-15T13:57:54;97202.47;;;10.18
20867;BMP280;10593;48.398;10.698;2023-02-15T14:13:43;97197.31;;;10.34
20867;BMP280;10593;48.398;10.698;2023-02-15T14:16:27;97194.75;;;10.38
20867;BMP280;10593;48.398;10.698;2023-02-15T14:19:45;97192.16;;;10.43
20867;BMP280;10593;48.398;10.698;2023-02-15T14:25:35;97198.13;;;10.51
20867;BMP280;10593;48.398;10.698;2023-02-15T14:28:11;97204.13;;;10.54
20867;BMP280;10593;48.398;10.698;2023-02-15T14:30:42;97193.84;;;10.59
20867;BMP280;10593;48.398;10.698;2023-02-15T14:35:54;97202.38;;;10.65
20867;BMP280;10593;48.398;10.698;2023-02-15T14:41:59;97201.53;;;10.71
20867;BMP280;10593;48.398;10.698;2023-02-15T14:44:42;97204.06;;;10.75
20867;BMP280;10593;48.398;10.698;2023-02-15T14:47:37;97204.06;;;10.78
20867;BMP280;10593;48.398;10.698;2023-02-15T14:58:37;97206.56;;;10.87
20867;BMP280;10593;48.398;10.698;2023-02-15T15:01:09;97193.75;;;10.90
20867;BMP280;10593;48.398;10.698;2023-02-15T15:03:36;97203.13;;;10.94
20867;BMP280;10593;48.398;10.698;2023-02-15T15:06:24;97206.56;;;10.98
20867;BMP280;10593;48.398;10.698;2023-02-15T15:09:12;97207.38;;;11.01
20867;BMP280;10593;48.398;10.698;2023-02-15T15:11:44;97204.81;;;11.04
20867;BMP280;10593;48.398;10.698;2023-02-15T15:16:57;97201.38;;;11.10
20867;BMP280;10593;48.398;10.698;2023-02-15T15:22:25;97197.91;;;11.14
20867;BMP280;10593;48.398;10.698;2023-02-15T15:24:54;97190.16;;;11.15
20867;BMP280;10593;48.398;10.698;2023-02-15T15:27:51;97188.47;;;11.17
20867;BMP280;10593;48.398;10.698;2023-02-15T15:41:40;97177.28;;;11.24
20867;BMP280;10593;48.398;10.698;2023-02-15T15:48:26;97179.84;;;11.24
20867;BMP280;10593;48.398;10.698;2023-02-15T15:50:57;97183.25;;;11.26
20867;BMP280;10593;48.398;10.698;2023-02-15T15:53:28;97183.25;;;11.28
20867;BMP280;10593;48.398;10.698;2023-02-15T15:56:07;97190.13;;;11.30
20867;BMP280;10593;48.398;10.698;2023-02-15T15:58:36;97190.09;;;11.32
20867;BMP280;10593;48.398;10.698;2023-02-15T16:01:10;97195.25;;;11.33
20867;BMP280;10593;48.398;10.698;2023-02-15T16:03:51;97202.09;;;11.34
20867;BMP280;10593;48.398;10.698;2023-02-15T16:06:39;97205.50;;;11.35
20867;BMP280;10593;48.398;10.698;2023-02-15T16:09:22;97202.09;;;11.34
20867;BMP280;10593;48.398;10.698;2023-02-15T16:11:57;97197.81;;;11.33
20867;BMP280;10593;48.398;10.698;2023-02-15T16:14:37;97208.09;;;11.33
20867;BMP280;10593;48.398;10.698;2023-02-15T16:17:07;97203.81;;;11.32
20867;BMP280;10593;48.398;10.698;2023-02-15T16:19:40;97202.09;;;11.33
20867;BMP280;10593;48.398;10.698;2023-02-15T16:22:23;97202.97;;;11.30
20867;BMP280;10593;48.398;10.698;2023-02-15T16:27:56;97207.28;;;11.25
20867;BMP280;10593;48.398;10.698;2023-02-15T16:30:32;97221.84;;;11.26
20867;BMP280;10593;48.398;10.698;2023-02-15T16:35:31;97223.59;;;11.23
20867;BMP280;10593;48.398;10.698;2023-02-15T16:37:57;97226.16;;;11.21
20867;BMP280;10593;48.398;10.698;2023-02-15T16:42:49;97237.31;;;11.19
20867;BMP280;10593;48.398;10.698;2023-02-15T16:45:19;97233.91;;;11.17
20867;BMP280;10593;48.398;10.698;2023-02-15T16:47:53;97232.19;;;11.16
20867;BMP280;10593;48.398;10.698;2023-02-15T16:50:33;97232.22;;;11.11
20867;BMP280;10593;48.398;10.698;2023-02-15T16:53:01;97234.81;;;11.08
20867;BMP280;10593;48.398;10.698;2023-02-15T16:55:39;97233.94;;;11.08
20867;BMP280;10593;48.398;10.698;2023-02-15T16:58:13;97232.25;;;11.05
20867;BMP280;10593;48.398;10.698;2023-02-15T17:00:40;97228.84;;;11.03
20867;BMP280;10593;48.398;10.698;2023-02-15T17:03:23;97233.13;;;11.00
20867;BMP280;10593;48.398;10.698;2023-02-15T17:08:31;97236.56;;;10.96
20867;BMP280;10593;48.398;10.698;2023-02-15T17:11:41;97240.84;;;10.91
20867;BMP280;10593;48.398;10.698;2023-02-15T17:16:49;97250.31;;;10.84
20867;BMP280;10593;48.398;10.698;2023-02-15T17:19:30;97242.63;;;10.83
20867;BMP280;10593;48.398;10.698;2023-02-15T17:22:01;97246.03;;;10.80
20867;BMP280;10593;48.398;10.698;2023-02-15T17:24:40;97246.91;;;10.79
20867;BMP280;10593;48.398;10.698;2023-02-15T17:27:24;97246.91;;;10.76